createdAt,value
2022-08-08T00:00:50.782Z,1.98
2022-08-08T00:02:55.751Z,1.98
2022-08-08T00:05:44.026Z,2.40
2022-08-08T00:08:33.258Z,1.88
2022-08-08T00:11:07.945Z,2.20
2022-08-08T00:14:15.360Z,2.20
2022-08-08T00:16:39.927Z,1.98
2022-08-08T00:19:22.210Z,2.30
2022-08-08T00:21:53.319Z,2.25
2022-08-08T00:24:24.242Z,2.35
2022-08-08T00:26:58.838Z,2.08
2022-08-08T00:29:44.869Z,2.38
2022-08-08T00:32:33.866Z,2.20
2022-08-08T00:35:18.360Z,2.47
2022-08-08T00:38:02.960Z,2.30
2022-08-08T00:41:09.103Z,2.70
2022-08-08T00:43:29.525Z,2.30
2022-08-08T00:46:16.395Z,2.60
2022-08-08T00:48:59.035Z,2.10
2022-08-08T00:51:42.212Z,2.50
2022-08-08T00:54:28.957Z,2.20
2022-08-08T00:57:12.739Z,2.67
2022-08-08T01:00:06.517Z,2.40
2022-08-08T01:04:01.600Z,2.40
2022-08-08T01:05:59.814Z,2.30
2022-08-08T01:08:31.865Z,2.55
2022-08-08T01:11:11.883Z,2.22
2022-08-08T01:13:52.801Z,2.28
2022-08-08T01:16:28.165Z,2.00
2022-08-08T01:19:41.985Z,2.13
2022-08-08T01:22:35.077Z,2.50
2022-08-08T01:25:30.394Z,2.28
2022-08-08T01:28:28.153Z,2.60
2022-08-08T01:32:05.541Z,2.40
2022-08-08T01:34:21.501Z,2.63
2022-08-08T01:36:56.451Z,2.30
2022-08-08T01:39:43.146Z,2.92
2022-08-08T01:42:19.674Z,2.65
2022-08-08T01:44:50.544Z,2.60
2022-08-08T01:48:15.046Z,2.75
2022-08-08T01:50:37.017Z,2.85
2022-08-08T01:55:17.848Z,2.70
2022-08-08T01:56:29.381Z,2.60
2022-08-08T01:59:08.618Z,2.70
2022-08-08T02:02:03.026Z,2.42
2022-08-08T02:04:44.343Z,2.65
2022-08-08T02:07:41.946Z,2.80
2022-08-08T02:10:29.915Z,3.40
2022-08-08T02:13:54.546Z,2.58
2022-08-08T02:16:23.773Z,2.70
2022-08-08T02:19:41.922Z,2.47
2022-08-08T02:22:31.356Z,2.40
2022-08-08T02:25:07.092Z,2.83
2022-08-08T02:27:56.942Z,2.63
2022-08-08T02:30:49.978Z,2.95
2022-08-08T02:34:00.287Z,3.08
2022-08-08T02:36:36.806Z,2.90
2022-08-08T02:39:41.289Z,3.05
2022-08-08T02:42:07.761Z,2.67
2022-08-08T02:44:58.108Z,2.95
2022-08-08T02:47:32.048Z,3.33
2022-08-08T02:49:59.493Z,3.03
2022-08-08T02:52:39.534Z,3.55
2022-08-08T02:55:10.377Z,3.10
2022-08-08T02:57:58.891Z,2.85
2022-08-08T03:00:43.097Z,2.88
2022-08-08T03:03:25.835Z,3.20
2022-08-08T03:06:34.951Z,3.33
2022-08-08T03:09:22.811Z,2.90
2022-08-08T03:12:14.439Z,3.08
2022-08-08T03:15:59.220Z,3.45
2022-08-08T03:17:39.707Z,3.28
2022-08-08T03:20:10.753Z,3.70
2022-08-08T03:22:57.164Z,3.40
2022-08-08T03:25:36.083Z,3.35
2022-08-08T03:28:12.791Z,3.60
2022-08-08T03:30:48.773Z,3.47
2022-08-08T03:33:54.969Z,3.70
2022-08-08T03:36:10.218Z,3.42
2022-08-08T03:38:57.829Z,3.60
2022-08-08T03:42:12.266Z,3.30
2022-08-08T03:44:25.465Z,3.70
2022-08-08T03:46:54.003Z,3.67
2022-08-08T03:49:56.866Z,3.60
2022-08-08T03:52:13.259Z,3.47
2022-08-08T03:55:02.546Z,3.55
2022-08-08T03:58:09.556Z,3.85
2022-08-08T04:00:18.925Z,3.80
2022-08-08T04:03:04.186Z,3.50
2022-08-08T04:05:35.348Z,4.00
2022-08-08T04:08:15.533Z,4.03
2022-08-08T04:11:02.110Z,4.10
2022-08-08T04:14:03.755Z,3.90
2022-08-08T04:16:40.092Z,4.22
2022-08-08T04:19:23.795Z,3.97
2022-08-08T04:21:55.202Z,4.13
2022-08-08T04:24:29.513Z,4.38
2022-08-08T04:26:59.373Z,3.88
2022-08-08T04:29:33.328Z,4.20
2022-08-08T04:32:10.505Z,4.13
2022-08-08T04:34:49.251Z,4.07
2022-08-08T04:37:31.634Z,4.22
2022-08-08T04:40:05.330Z,4.45
2022-08-08T04:42:46.870Z,4.38
2022-08-08T04:45:26.165Z,4.20
2022-08-08T04:47:57.313Z,4.15
2022-08-08T04:50:32.619Z,4.85
2022-08-08T04:53:05.187Z,4.63
2022-08-08T04:55:55.530Z,4.70
2022-08-08T04:58:25.453Z,4.72
2022-08-08T05:00:53.165Z,4.30
2022-08-08T05:04:09.746Z,4.72
2022-08-08T05:06:12.663Z,4.40
2022-08-08T05:08:45.997Z,4.53
2022-08-08T05:11:24.033Z,4.45
2022-08-08T05:14:01.107Z,4.85
2022-08-08T05:16:50.776Z,4.53
2022-08-08T05:20:12.227Z,4.72
2022-08-08T05:22:09.965Z,5.07
2022-08-08T05:24:41.256Z,4.90
2022-08-08T05:27:14.519Z,4.45
2022-08-08T05:29:42.352Z,4.53
2022-08-08T05:32:12.541Z,4.60
2022-08-08T05:34:42.407Z,5.10
2022-08-08T05:37:18.535Z,5.00
2022-08-08T05:39:51.262Z,4.40
2022-08-08T05:42:25.860Z,4.65
2022-08-08T05:44:53.155Z,4.72
2022-08-08T05:47:21.598Z,4.85
2022-08-08T05:49:55.845Z,4.93
2022-08-08T05:52:33.877Z,5.15
2022-08-08T05:55:07.536Z,4.70
2022-08-08T05:58:03.890Z,5.15
2022-08-08T06:00:30.410Z,5.13
2022-08-08T06:03:17.577Z,4.78
2022-08-08T06:06:09.986Z,4.85
2022-08-08T06:08:55.223Z,5.13
2022-08-08T06:11:30.841Z,5.13
2022-08-08T06:13:57.459Z,5.47
2022-08-08T06:16:30.327Z,5.13
2022-08-08T06:19:18.582Z,5.15
2022-08-08T06:21:56.854Z,5.22
2022-08-08T06:24:35.970Z,5.25
2022-08-08T06:27:05.699Z,5.10
2022-08-08T06:29:56.409Z,5.32
2022-08-08T06:32:28.405Z,4.97
2022-08-08T06:36:00.637Z,5.25
2022-08-08T06:38:14.636Z,5.43
2022-08-08T06:40:52.118Z,4.50
2022-08-08T06:43:35.098Z,5.28
2022-08-08T06:46:08.923Z,5.95
2022-08-08T06:48:42.421Z,5.32
2022-08-08T06:51:11.215Z,5.03
2022-08-08T06:53:50.960Z,4.95
2022-08-08T06:56:28.312Z,5.05
2022-08-08T06:58:58.263Z,5.25
2022-08-08T07:02:17.870Z,4.70
2022-08-08T07:04:37.313Z,4.63
2022-08-08T07:07:12.302Z,4.75
2022-08-08T07:09:59.545Z,4.97
2022-08-08T07:12:40.084Z,5.20
2022-08-08T07:15:23.450Z,4.90
2022-08-08T07:18:34.526Z,5.40
2022-08-08T07:20:50.635Z,4.85
2022-08-08T07:23:24.324Z,4.45
2022-08-08T07:25:56.127Z,5.10
2022-08-08T07:28:31.737Z,4.38
2022-08-08T07:31:04.733Z,5.32
2022-08-08T07:33:38.116Z,4.15
2022-08-08T07:36:19.315Z,4.60
2022-08-08T07:38:52.960Z,4.03
2022-08-08T07:41:24.680Z,4.40
2022-08-08T07:43:57.428Z,4.45
2022-08-08T07:46:30.888Z,4.03
2022-08-08T07:49:07.609Z,3.90
2022-08-08T07:51:44.860Z,4.03
2022-08-08T07:54:37.209Z,3.60
2022-08-08T07:57:17.412Z,4.10
2022-08-08T07:59:52.058Z,4.00
2022-08-08T08:02:35.301Z,4.15
2022-08-08T08:05:17.901Z,3.90
2022-08-08T08:07:53.066Z,3.63
2022-08-08T08:10:30.497Z,3.80
2022-08-08T08:13:20.483Z,3.30
2022-08-08T08:15:56.902Z,3.63
2022-08-08T08:18:32.451Z,4.05
2022-08-08T08:21:02.830Z,3.15
2022-08-08T08:23:40.930Z,3.80
2022-08-08T08:26:11.252Z,3.53
2022-08-08T08:28:37.804Z,3.10
2022-08-08T08:31:06.720Z,3.10
2022-08-08T08:33:39.640Z,2.92
2022-08-08T08:36:19.691Z,3.05
2022-08-08T08:38:50.263Z,3.05
2022-08-08T08:41:23.869Z,3.20
2022-08-08T08:43:52.124Z,3.10
2022-08-08T08:46:19.818Z,3.03
2022-08-08T08:48:53.618Z,3.03
2022-08-08T08:51:21.167Z,3.17
2022-08-08T08:53:58.902Z,2.92
2022-08-08T08:56:31.720Z,2.75
2022-08-08T08:59:09.134Z,3.05
2022-08-08T09:01:47.661Z,2.72
2022-08-08T09:04:31.822Z,3.03
2022-08-08T09:07:13.619Z,2.60
2022-08-08T09:09:48.227Z,2.70
2022-08-08T09:12:26.102Z,2.75
2022-08-08T09:14:56.495Z,2.35
2022-08-08T09:17:40.810Z,2.40
2022-08-08T09:21:58.128Z,2.90
2022-08-08T09:23:01.285Z,2.55
2022-08-08T09:25:47.475Z,2.63
2022-08-08T09:28:35.451Z,2.42
2022-08-08T09:31:12.482Z,2.65
2022-08-08T09:34:15.399Z,2.90
2022-08-08T09:36:33.296Z,2.85
2022-08-08T09:39:15.318Z,2.63
2022-08-08T09:42:13.990Z,2.65
2022-08-08T09:44:56.029Z,2.63
2022-08-08T09:47:26.971Z,2.53
2022-08-08T09:50:13.889Z,2.83
2022-08-08T09:52:47.817Z,3.00
2022-08-08T09:55:51.303Z,2.47
2022-08-08T09:58:26.031Z,2.42
2022-08-08T10:01:15.382Z,2.70
2022-08-08T10:03:55.974Z,3.00
2022-08-08T10:06:29.516Z,2.80
2022-08-08T10:08:57.301Z,2.38
2022-08-08T10:12:26.895Z,2.53
2022-08-08T10:14:28.595Z,3.15
2022-08-08T10:16:58.612Z,2.45
2022-08-08T10:19:45.906Z,2.97
2022-08-08T10:22:22.800Z,2.53
2022-08-08T10:24:54.871Z,2.60
2022-08-08T10:27:23.177Z,2.70
2022-08-08T10:29:59.324Z,2.25
2022-08-08T10:32:37.403Z,3.00
2022-08-08T10:35:11.800Z,2.78
2022-08-08T10:37:58.548Z,3.20
2022-08-08T10:40:26.237Z,2.53
2022-08-08T10:43:03.364Z,2.80
2022-08-08T10:45:42.186Z,3.25
2022-08-08T10:48:12.209Z,2.65
2022-08-08T10:50:39.307Z,3.30
2022-08-08T10:53:12.659Z,2.70
2022-08-08T10:55:47.032Z,2.58
2022-08-08T10:58:13.863Z,2.97
2022-08-08T11:00:48.468Z,2.60
2022-08-08T11:03:36.748Z,2.40
2022-08-08T11:06:12.526Z,2.40
2022-08-08T11:08:46.243Z,2.50
2022-08-08T11:11:32.100Z,2.30
2022-08-08T11:14:12.336Z,2.75
2022-08-08T11:16:46.516Z,2.30
2022-08-08T11:19:15.485Z,2.35
2022-08-08T11:21:55.358Z,2.47
2022-08-08T11:24:25.180Z,2.15
2022-08-08T11:26:56.385Z,2.22
2022-08-08T11:29:23.870Z,2.50
2022-08-08T11:32:13.363Z,2.33
2022-08-08T11:34:59.015Z,2.50
2022-08-08T11:38:35.120Z,2.05
2022-08-08T11:40:16.092Z,2.53
2022-08-08T11:42:51.259Z,2.17
2022-08-08T11:45:21.074Z,2.33
2022-08-08T11:48:02.858Z,2.33
2022-08-08T11:50:36.374Z,2.50
2022-08-08T11:53:05.738Z,2.05
2022-08-08T11:55:36.447Z,2.25
2022-08-08T11:58:15.139Z,2.20
2022-08-08T12:00:53.947Z,1.88
2022-08-08T12:03:21.215Z,2.03
2022-08-08T12:05:49.694Z,2.20
2022-08-08T12:08:18.228Z,1.95
2022-08-08T12:10:49.145Z,2.40
2022-08-08T12:13:21.303Z,2.05
2022-08-08T12:16:11.126Z,2.38
2022-08-08T12:18:47.553Z,2.72
2022-08-08T12:21:25.836Z,2.13
2022-08-08T12:24:14.163Z,2.42
2022-08-08T12:26:42.675Z,2.20
2022-08-08T12:29:40.172Z,2.38
2022-08-08T12:32:20.890Z,2.50
2022-08-08T12:35:04.776Z,2.50
2022-08-08T12:38:01.027Z,2.60
2022-08-08T12:40:58.387Z,2.83
2022-08-08T12:43:31.945Z,2.13
2022-08-08T12:46:03.146Z,2.60
2022-08-08T12:48:37.430Z,2.58
2022-08-08T12:51:10.877Z,2.35
2022-08-08T12:53:44.457Z,2.85
2022-08-08T12:56:18.700Z,2.70
2022-08-08T12:58:54.217Z,3.10
2022-08-08T13:01:36.496Z,3.13
2022-08-08T13:04:19.076Z,2.60
2022-08-08T13:06:56.908Z,3.10
2022-08-08T13:09:57.614Z,2.60
2022-08-08T13:12:47.069Z,2.80
2022-08-08T13:15:16.297Z,2.40
2022-08-08T13:18:07.824Z,2.58
2022-08-08T13:20:31.603Z,2.78
2022-08-08T13:23:31.315Z,2.85
2022-08-08T13:25:50.190Z,2.58
2022-08-08T13:28:17.397Z,2.55
2022-08-08T13:30:44.343Z,2.58
2022-08-08T13:33:18.576Z,2.67
2022-08-08T13:35:50.589Z,2.70
2022-08-08T13:38:17.901Z,3.33
2022-08-08T13:40:44.885Z,2.42
2022-08-08T13:43:12.608Z,2.28
2022-08-08T13:45:39.328Z,3.00
2022-08-08T13:48:13.018Z,2.80
2022-08-08T13:50:55.100Z,2.95
2022-08-08T13:53:33.971Z,3.33
2022-08-08T13:56:05.845Z,2.60
2022-08-08T13:58:33.097Z,2.60
2022-08-08T14:01:10.994Z,2.55
2022-08-08T14:03:47.247Z,2.50
2022-08-08T14:06:32.906Z,2.65
2022-08-08T14:09:25.212Z,2.70
2022-08-08T14:11:51.800Z,2.10
2022-08-08T14:14:25.462Z,2.70
2022-08-08T14:16:53.726Z,2.50
2022-08-08T14:19:58.139Z,2.85
2022-08-08T14:22:21.984Z,2.47
2022-08-08T14:24:49.551Z,2.47
2022-08-08T14:27:27.154Z,2.75
2022-08-08T14:30:17.821Z,2.78
2022-08-08T14:32:52.849Z,2.45
2022-08-08T14:35:21.385Z,2.50
2022-08-08T14:37:59.826Z,2.67
2022-08-08T14:40:29.873Z,2.50
2022-08-08T14:43:01.391Z,2.47
2022-08-08T14:45:46.726Z,2.53
2022-08-08T14:48:17.639Z,2.65
2022-08-08T14:50:48.066Z,2.80
2022-08-08T14:53:15.293Z,2.58
2022-08-08T14:55:42.959Z,3.22
2022-08-08T14:58:12.149Z,3.10
2022-08-08T15:00:45.328Z,2.88
2022-08-08T15:03:16.962Z,3.33
2022-08-08T15:05:54.200Z,2.63
2022-08-08T15:08:35.282Z,3.00
2022-08-08T15:11:06.754Z,2.90
2022-08-08T15:13:40.867Z,2.92
2022-08-08T15:16:28.063Z,2.40
2022-08-08T15:18:55.056Z,2.80
2022-08-08T15:21:22.956Z,3.90
2022-08-08T15:23:56.642Z,3.00
2022-08-08T15:26:25.654Z,2.92
2022-08-08T15:28:55.264Z,2.53
2022-08-08T15:31:55.955Z,2.60
2022-08-08T15:34:28.901Z,3.42
2022-08-08T15:36:57.868Z,2.80
2022-08-08T15:39:25.694Z,2.53
2022-08-08T15:42:01.966Z,2.60
2022-08-08T15:44:31.621Z,2.40
2022-08-08T15:46:58.200Z,2.60
2022-08-08T15:49:27.720Z,2.45
2022-08-08T15:51:56.799Z,2.55
2022-08-08T15:54:38.255Z,2.60
2022-08-08T15:57:07.373Z,2.42
2022-08-08T16:00:05.782Z,2.35
2022-08-08T16:02:31.499Z,2.42
2022-08-08T16:05:00.088Z,2.45
2022-08-08T16:07:39.574Z,1.95
2022-08-08T16:13:12.218Z,2.50
2022-08-08T16:13:27.551Z,2.78
2022-08-08T16:15:59.193Z,2.30
2022-08-08T16:18:32.963Z,2.08
2022-08-08T16:21:00.679Z,2.10
2022-08-08T16:23:31.919Z,2.25
2022-08-08T16:26:03.508Z,2.58
2022-08-08T16:28:35.451Z,1.98
2022-08-08T16:31:06.444Z,2.38
2022-08-08T16:33:38.145Z,2.20
2022-08-08T16:36:08.825Z,2.53
2022-08-08T16:38:44.698Z,2.17
2022-08-08T16:41:11.778Z,2.28
2022-08-08T16:43:51.266Z,2.20
2022-08-08T16:46:38.514Z,2.00
2022-08-08T16:49:05.677Z,2.15
2022-08-08T16:55:04.913Z,2.35
2022-08-08T16:55:05.140Z,2.17
2022-08-08T16:58:12.140Z,2.25
2022-08-08T17:00:06.130Z,2.17
2022-08-08T17:02:39.214Z,2.30
2022-08-08T17:05:13.061Z,1.90
2022-08-08T17:07:41.720Z,2.15
2022-08-08T17:10:19.066Z,2.30
2022-08-08T17:12:52.533Z,1.70
2022-08-08T17:15:21.206Z,2.08
2022-08-08T17:18:03.055Z,2.00
2022-08-08T17:20:31.563Z,2.28
2022-08-08T17:23:18.501Z,1.75
2022-08-08T17:25:52.259Z,1.67
2022-08-08T17:28:33.931Z,1.80
2022-08-08T17:31:44.141Z,1.95
2022-08-08T17:34:49.303Z,2.55
2022-08-08T17:37:00.812Z,1.88
2022-08-08T17:40:03.781Z,1.55
2022-08-08T17:42:12.880Z,1.80
2022-08-08T17:44:43.999Z,1.80
2022-08-08T17:47:11.255Z,1.88
2022-08-08T17:49:50.312Z,1.65
2022-08-08T17:52:28.262Z,1.88
2022-08-08T17:54:56.351Z,1.92
2022-08-08T17:57:23.267Z,1.50
2022-08-08T17:59:51.753Z,1.63
2022-08-08T18:02:28.679Z,1.75
2022-08-08T18:04:58.362Z,1.70
2022-08-08T18:08:03.052Z,1.80
2022-08-08T18:10:14.065Z,1.80
2022-08-08T18:12:43.006Z,1.60
2022-08-08T18:15:12.948Z,1.65
2022-08-08T18:18:09.809Z,1.77
2022-08-08T18:20:44.410Z,1.90
2022-08-08T18:23:14.759Z,1.65
2022-08-08T18:25:43.821Z,1.95
2022-08-08T18:28:13.327Z,2.13
2022-08-08T18:30:41.327Z,2.25
2022-08-08T18:33:36.368Z,1.60
2022-08-08T18:36:02.742Z,1.50
2022-08-08T18:38:30.400Z,1.77
2022-08-08T18:40:57.441Z,1.60
2022-08-08T18:43:37.902Z,1.85
2022-08-08T18:46:55.635Z,1.70
2022-08-08T18:48:57.199Z,1.90
2022-08-08T18:51:53.310Z,1.92
2022-08-08T18:54:24.754Z,1.65
2022-08-08T18:56:57.847Z,1.67
2022-08-08T18:59:24.847Z,1.80
2022-08-08T19:02:27.257Z,2.03
2022-08-08T19:04:49.311Z,1.95
2022-08-08T19:07:18.148Z,1.95
2022-08-08T19:09:49.285Z,1.60
2022-08-08T19:12:35.209Z,1.80
2022-08-08T19:15:03.022Z,1.50
2022-08-08T19:17:48.141Z,1.80
2022-08-08T19:20:17.427Z,2.20
2022-08-08T19:22:47.525Z,2.38
2022-08-08T19:26:02.072Z,1.80
2022-08-08T19:28:17.938Z,2.03
2022-08-08T19:30:51.493Z,1.67
2022-08-08T19:33:51.578Z,1.75
2022-08-08T19:36:27.367Z,2.40
2022-08-08T19:38:54.502Z,1.73
2022-08-08T19:41:26.471Z,1.73
2022-08-08T19:44:02.961Z,2.00
2022-08-08T19:46:33.640Z,2.03
2022-08-08T19:49:01.156Z,1.88
2022-08-08T19:51:34.519Z,1.75
2022-08-08T19:54:06.148Z,1.80
2022-08-08T19:56:40.231Z,1.88
2022-08-08T19:59:11.675Z,1.92
2022-08-08T20:02:01.893Z,1.60
2022-08-08T20:04:29.330Z,1.67
2022-08-08T20:06:56.967Z,1.77
2022-08-08T20:09:24.841Z,1.60
2022-08-08T20:11:52.134Z,1.67
2022-08-08T20:14:34.498Z,2.20
2022-08-08T20:17:03.509Z,1.70
2022-08-08T20:19:34.559Z,1.50
2022-08-08T20:22:20.613Z,1.88
2022-08-08T20:24:48.231Z,1.60
2022-08-08T20:27:20.418Z,1.50
2022-08-08T20:29:55.614Z,1.67
2022-08-08T20:32:30.042Z,1.75
2022-08-08T20:35:02.174Z,1.55
2022-08-08T20:37:52.787Z,1.55
2022-08-08T20:40:17.289Z,1.70
2022-08-08T20:42:54.891Z,1.85
2022-08-08T20:45:54.583Z,1.48
2022-08-08T20:48:09.977Z,1.50
2022-08-08T20:50:38.930Z,1.35
2022-08-08T20:53:10.946Z,2.33
2022-08-08T20:55:42.861Z,1.67
2022-08-08T20:58:13.960Z,1.42
2022-08-08T21:00:50.197Z,1.67
2022-08-08T21:03:19.261Z,1.90
2022-08-08T21:05:58.824Z,2.50
2022-08-08T21:08:36.428Z,2.50
2022-08-08T21:11:12.444Z,2.70
2022-08-08T21:13:43.491Z,2.83
2022-08-08T21:16:20.856Z,3.03
2022-08-08T21:18:57.441Z,2.75
2022-08-08T21:21:39.574Z,2.70
2022-08-08T21:24:22.193Z,2.45
2022-08-08T21:26:54.779Z,2.58
2022-08-08T21:30:05.727Z,2.42
2022-08-08T21:32:14.121Z,1.83
2022-08-08T21:34:49.611Z,2.20
2022-08-08T21:37:19.067Z,2.08
2022-08-08T21:39:56.495Z,1.98
2022-08-08T21:42:25.207Z,1.70
2022-08-08T21:44:58.420Z,1.58
2022-08-08T21:48:19.395Z,1.80
2022-08-08T21:50:13.952Z,1.73
2022-08-08T21:54:31.836Z,1.70
2022-08-08T21:56:26.597Z,1.85
2022-08-08T21:58:14.672Z,1.67
2022-08-08T22:00:44.123Z,1.50
2022-08-08T22:03:11.169Z,1.98
2022-08-08T22:05:44.472Z,1.50
2022-08-08T22:08:11.349Z,1.88
2022-08-08T22:10:37.981Z,1.50
2022-08-08T22:13:18.489Z,1.63
2022-08-08T22:15:58.542Z,1.73
2022-08-08T22:18:33.171Z,1.77
2022-08-08T22:21:13.790Z,1.45
2022-08-08T22:23:50.621Z,1.73
2022-08-08T22:26:28.845Z,1.52
2022-08-08T22:29:14.713Z,1.77
2022-08-08T22:31:58.939Z,1.35
2022-08-08T22:34:39.778Z,1.60
2022-08-08T22:37:07.287Z,1.65
2022-08-08T22:40:00.832Z,1.85
2022-08-08T22:42:31.725Z,1.55
2022-08-08T22:45:00.963Z,1.85
2022-08-08T22:47:37.855Z,1.60
2022-08-08T22:50:21.614Z,1.67
2022-08-08T22:54:27.802Z,1.70
2022-08-08T22:55:58.480Z,1.70
2022-08-08T22:58:29.201Z,2.10
2022-08-08T23:00:59.984Z,1.90
2022-08-08T23:03:34.178Z,2.13
2022-08-08T23:06:16.907Z,1.85
2022-08-08T23:08:54.269Z,1.73
2022-08-08T23:11:21.678Z,1.80
2022-08-08T23:13:53.495Z,1.65
2022-08-08T23:16:38.996Z,1.85
2022-08-08T23:19:09.164Z,1.98
2022-08-08T23:21:39.187Z,1.80
2022-08-08T23:24:06.446Z,2.05
2022-08-08T23:26:34.593Z,1.95
2022-08-08T23:29:02.065Z,2.00
2022-08-08T23:31:38.528Z,1.90
2022-08-08T23:34:17.630Z,1.80
2022-08-08T23:36:57.965Z,2.00
2022-08-08T23:39:25.728Z,2.20
2022-08-08T23:42:00.882Z,2.05
2022-08-08T23:44:28.537Z,1.75
2022-08-08T23:49:01.448Z,1.75
2022-08-08T23:49:41.760Z,1.95
2022-08-08T23:52:11.989Z,1.65
2022-08-08T23:55:07.697Z,1.92
2022-08-08T23:57:39.211Z,2.03
